KBRL/BRL METAR and TAF weather

Enter ICAO airport designator
Station Type Date Time Source
KBRL METAR 2019/10/16 19:53 UTC NOAA

KBRL 161953Z AUTO 33010G18KT 10SM OVC041 10/01 A3009 RMK AO2 SLP191 T01000011


Station Type Date Time Source
KBRL Decoded METAR 2019/10/16 19:53 UTC NOAA

BURLINGTON REGIONAL AIRPORT, IA, United States (KBRL) 40-46N 91-08W 211M
Oct 16, 2019 - 03:53 PM EDT / 2019.10.16 1953 UTC
Wind: from the NNW (330 degrees) at 12 MPH (10 KT) gusting to 21 MPH (18 KT):0
Visibility: 10 mile(s):0
Sky conditions: overcast
Temperature: 50.0 F (10.0 C)
Dew Point: 34.0 F (1.1 C)
Relative Humidity: 53%
Pressure (altimeter): 30.09 in. Hg (1018 hPa)
ob: KBRL 161953Z AUTO 33010G18KT 10SM OVC041 10/01 A3009 RMK AO2 SLP191 T01000011
cycle: 20

Station Type Date Time Source
KBRL TAF 2019/10/16 18:22 UTC NOAA

TAF KBRL 161720Z 1618/1718 32012G20KT P6SM SCT025 OVC035
TEMPO 1618/1621 BKN025
FM170200 32005KT P6SM BKN040
FM171200 VRB04KT P6SM SCT200

Example: see airport list